Accueil
METAR-TAF:

METAR-TAF

Aéroports :

Gilze-Rijen, Pays-Bas

latitude: 51-34N, longitude: 004-56E, altitude: 15 m

Observation

Le bulletin a été fait il y a 8 minutes, à 02:25 UTC
Vent 3 kt de est/nord-est
Température 9°C
Humidité 81%
Pression 1026 hPa
Visibilité 10 km ou plus
Ciel couvert à une hauteur de 29000 ft

METAR: EHGR 080225Z AUTO 07003KT 9999 OVC290 09/06 Q1026 BLU

Heure: 04:33 (02:33 UTC)

Prévision

Le bulletin a été fait il y a 9 heures et 52 minutes, à 16:41 UTC
Prévision valable du 07 à 17 UTC au 08 à 05 UTC
Vent 7 kt de est
Visibilité 10 km ou plus
pas de nuages en-dessous de 1500 mètres et pas de cumulonimbus.
Evoluant progressivement
du 08 à 01 UTC au 08 à 04 UTC
Vent 4 kt de est/sud-est

TAF: EHGR 071641Z 0717/0805 09007KT CAVOK BECMG 0801/0804 12004KT

Observations et prévisions météorologiques de plus de 4000 aéroports (messages METAR et TAF).

Les stations disponibles sont représentées par des disques jaunes et rouges sur la carte.

Passer la souris dessus pour voir le nom de la station.

Cliquer dessus pour voir les observations et prévisions météorologiques.

Pour changer de carte: cliquez sur les boutons verts avec une croix noire pour zoomer, sur le bouton vert avec un tiret pour effectuer un zoom arrière, ou sur les flèches vertes pour les cartes adjacentes.


METAR-TAF: